Koushinmaru No.5 — JL6695 — position and weather

sailwx.info

Track history (hours):
 
Tides and Currents Weather Stations Pressure Air Temp Water Temp Dewpoint Dewpoint Depression Visibility Wind Speed Wind Dir Waves Ship Positions

Koushinmaru No.5

Last reported at 2015-Feb-10 09:33 UTC. Time now 2015-Feb-28 05:27 UTC.
Position N 34°06' E 135°02'.
Warning: this ship's position is 17 days out of date.

Length 75 m; draft 3.4 m.

Type: Cargo ship. MMSI: 431301703.

Date/timePositionNaut miles runAvg speedWind from/ knotsBaromVisibWave heightAir tempDewpointWater temp
2015-Feb-10 09:33N 34°06' E 135°02'1711.8
2015-Feb-10 08:06N 34°22' E 135°07'611.5
2015-Feb-10 07:33N 34°27' E 135°12'1111.0
2015-Feb-10 06:33N 34°35' E 135°21'5 0.2
2015-Feb-08 22:11N 34°35' E 135°27'0 0.7
2015-Feb-08 21:33N 34°35' E 135°27'0 0.1
2015-Feb-08 20:34N 34°35' E 135°27'0 0.0
2015-Feb-08 19:34N 34°35' E 135°27'0 0.0
2015-Feb-08 18:33N 34°35' E 135°27'0 0.0
2015-Feb-08 17:34N 34°35' E 135°27'0 0.0
2015-Feb-08 16:31N 34°35' E 135°27'0 0.0
2015-Feb-08 15:34N 34°35' E 135°27'0 0.0
2015-Feb-08 14:34N 34°35' E 135°27'0 0.0
2015-Feb-08 13:33N 34°35' E 135°27'0 0.0
2015-Feb-08 12:34N 34°35' E 135°27'0 0.0
2015-Feb-08 11:32N 34°35' E 135°27'0 0.0
2015-Feb-08 10:34N 34°35' E 135°27'0 0.0
2015-Feb-08 09:33N 34°35' E 135°27'2 1.5
2015-Feb-08 08:32N 34°36' E 135°25'1110.7
2015-Feb-08 07:33N 34°29' E 135°15'1111.7
2015-Feb-08 06:34N 34°21' E 135°06'7 6.6
2015-Feb-08 05:34N 34°14' E 135°07'0 0.0
2015-Feb-07 17:09N 34°15' E 135°07'0 0.5
2015-Feb-07 16:33N 34°15' E 135°07'0 0.0
2015-Feb-07 15:33N 34°15' E 135°07'0 0.0
2015-Feb-07 14:33N 34°15' E 135°07'0 0.0
2015-Feb-07 13:33N 34°15' E 135°07'0 0.0
2015-Feb-07 12:33N 34°15' E 135°07'0 0.0
2015-Feb-07 11:33N 34°15' E 135°07'0 0.0
2015-Feb-07 10:33N 34°15' E 135°07'0 0.0
2015-Feb-07 09:33N 34°15' E 135°07'7 6.8
2015-Feb-07 08:33N 34°08' E 135°04'226 8.3
2015-Feb-06 05:19N 35°01' E 139°30'810.5
2015-Feb-06 04:32N 35°06' E 139°38'1110.7
2015-Feb-06 03:33N 35°14' E 139°46'1010.2
2015-Feb-06 02:33N 35°23' E 139°40'0 0.0
2015-Feb-06 01:33N 35°23' E 139°40'0 0.0
2015-Feb-06 00:33N 35°23' E 139°40'0 0.0
2015-Feb-05 23:33N 35°23' E 139°40'0 0.0
2015-Feb-05 22:33N 35°23' E 139°40'0 0.0
2015-Feb-05 21:33N 35°23' E 139°40'0 0.0
2015-Feb-05 20:34N 35°23' E 139°40'0 0.0
2015-Feb-05 19:33N 35°23' E 139°40'0 0.0
2015-Feb-05 18:34N 35°23' E 139°40'0 0.0
2015-Feb-05 17:33N 35°23' E 139°40'0 0.0
2015-Feb-05 16:33N 35°23' E 139°40'0 0.0
2015-Feb-05 15:33N 35°23' E 139°40'0 0.0
2015-Feb-05 14:33N 35°23' E 139°40'0 0.0
2015-Feb-05 13:33N 35°23' E 139°40'0 0.0
2015-Feb-05 12:33N 35°23' E 139°40'0 0.0
2015-Feb-05 11:33N 35°23' E 139°40'0 0.0
2015-Feb-05 10:33N 35°23' E 139°40'0 0.0
2015-Feb-05 09:33N 35°23' E 139°40'0 0.0
2015-Feb-05 08:33N 35°23' E 139°40'0 0.0
2015-Feb-05 07:33N 35°23' E 139°40'0 0.0
2015-Feb-05 06:33N 35°23' E 139°40'0 0.0
2015-Feb-05 05:33N 35°23' E 139°40'0 0.0
2015-Feb-05 04:33N 35°23' E 139°40'0 0.0
2015-Feb-05 03:33N 35°23' E 139°40'0 0.0
2015-Feb-05 02:33N 35°23' E 139°40'0 0.0
2015-Feb-05 01:33N 35°23' E 139°40'0 0.0
2015-Feb-05 00:33N 35°23' E 139°40'0 0.0
2015-Feb-04 23:33N 35°23' E 139°40'0 0.0
2015-Feb-04 22:33N 35°23' E 139°40'0 0.0
2015-Feb-04 21:33N 35°23' E 139°40'7 6.5
2015-Feb-04 20:33N 35°17' E 139°45'1010.5
2015-Feb-04 19:33N 35°07' E 139°45'1110.7
2015-Feb-04 18:29N 34°55' E 139°46'  
2015-Feb-01 22:27N 34°52' E 139°52'1111.7
2015-Feb-01 21:32N 34°52' E 139°39'23510.1
2015-Jan-31 22:21N 33°59' E 135°01'911.8
2015-Jan-31 21:33N 34°09' E 135°03'7 6.6
2015-Jan-31 20:33N 34°15' E 135°06'0 0.0
2015-Jan-31 19:33N 34°15' E 135°06'0 0.0
2015-Jan-31 18:33N 34°15' E 135°06'0 0.0
2015-Jan-31 17:33N 34°15' E 135°06'0 0.0
2015-Jan-31 16:34N 34°15' E 135°06'0 0.0
2015-Jan-31 15:33N 34°15' E 135°06'0 0.0
2015-Jan-31 14:33N 34°15' E 135°06'0 0.0
2015-Jan-31 13:33N 34°15' E 135°06'0 0.0
2015-Jan-31 12:33N 34°15' E 135°06'0 0.0
2015-Jan-31 11:32N 34°15' E 135°06'0 0.0
2015-Jan-31 10:33N 34°15' E 135°06'0 0.0
2015-Jan-31 09:33N 34°15' E 135°06'  
Track history (hours):
 
Tides and Currents Weather Stations Pressure Air Temp Water Temp Dewpoint Dewpoint Depression Visibility Wind Speed Wind Dir Waves Ship Positions

Koushinmaru No.5

Last reported at 2015-Feb-10 09:33 UTC. Time now 2015-Feb-28 05:27 UTC.
Position N 34°06' E 135°02'.
Warning: this ship's position is 17 days out of date.

Length 75 m; draft 3.4 m.

Type: Cargo ship. MMSI: 431301703.

Date/timePositionNaut miles runAvg speedWind from/ knotsBaromVisibWave heightAir tempDewpointWater temp
2015-Feb-10 09:33N 34°06' E 135°02'1711.8
2015-Feb-10 08:06N 34°22' E 135°07'611.5
2015-Feb-10 07:33N 34°27' E 135°12'1111.0
2015-Feb-10 06:33N 34°35' E 135°21'5 0.2
2015-Feb-08 22:11N 34°35' E 135°27'0 0.7
2015-Feb-08 21:33N 34°35' E 135°27'0 0.1
2015-Feb-08 20:34N 34°35' E 135°27'0 0.0
2015-Feb-08 19:34N 34°35' E 135°27'0 0.0
2015-Feb-08 18:33N 34°35' E 135°27'0 0.0
2015-Feb-08 17:34N 34°35' E 135°27'0 0.0
2015-Feb-08 16:31N 34°35' E 135°27'0 0.0
2015-Feb-08 15:34N 34°35' E 135°27'0 0.0
2015-Feb-08 14:34N 34°35' E 135°27'0 0.0
2015-Feb-08 13:33N 34°35' E 135°27'0 0.0
2015-Feb-08 12:34N 34°35' E 135°27'0 0.0
2015-Feb-08 11:32N 34°35' E 135°27'0 0.0
2015-Feb-08 10:34N 34°35' E 135°27'0 0.0
2015-Feb-08 09:33N 34°35' E 135°27'2 1.5
2015-Feb-08 08:32N 34°36' E 135°25'1110.7
2015-Feb-08 07:33N 34°29' E 135°15'1111.7
2015-Feb-08 06:34N 34°21' E 135°06'7 6.6
2015-Feb-08 05:34N 34°14' E 135°07'0 0.0
2015-Feb-07 17:09N 34°15' E 135°07'0 0.5
2015-Feb-07 16:33N 34°15' E 135°07'0 0.0
2015-Feb-07 15:33N 34°15' E 135°07'0 0.0
2015-Feb-07 14:33N 34°15' E 135°07'0 0.0
2015-Feb-07 13:33N 34°15' E 135°07'0 0.0
2015-Feb-07 12:33N 34°15' E 135°07'0 0.0
2015-Feb-07 11:33N 34°15' E 135°07'0 0.0
2015-Feb-07 10:33N 34°15' E 135°07'0 0.0
2015-Feb-07 09:33N 34°15' E 135°07'7 6.8
2015-Feb-07 08:33N 34°08' E 135°04'226 8.3
2015-Feb-06 05:19N 35°01' E 139°30'810.5
2015-Feb-06 04:32N 35°06' E 139°38'1110.7
2015-Feb-06 03:33N 35°14' E 139°46'1010.2
2015-Feb-06 02:33N 35°23' E 139°40'0 0.0
2015-Feb-06 01:33N 35°23' E 139°40'0 0.0
2015-Feb-06 00:33N 35°23' E 139°40'0 0.0
2015-Feb-05 23:33N 35°23' E 139°40'0 0.0
2015-Feb-05 22:33N 35°23' E 139°40'0 0.0
2015-Feb-05 21:33N 35°23' E 139°40'0 0.0
2015-Feb-05 20:34N 35°23' E 139°40'0 0.0
2015-Feb-05 19:33N 35°23' E 139°40'0 0.0
2015-Feb-05 18:34N 35°23' E 139°40'0 0.0
2015-Feb-05 17:33N 35°23' E 139°40'0 0.0
2015-Feb-05 16:33N 35°23' E 139°40'0 0.0
2015-Feb-05 15:33N 35°23' E 139°40'0 0.0
2015-Feb-05 14:33N 35°23' E 139°40'0 0.0
2015-Feb-05 13:33N 35°23' E 139°40'0 0.0
2015-Feb-05 12:33N 35°23' E 139°40'0 0.0
2015-Feb-05 11:33N 35°23' E 139°40'0 0.0
2015-Feb-05 10:33N 35°23' E 139°40'0 0.0
2015-Feb-05 09:33N 35°23' E 139°40'0 0.0
2015-Feb-05 08:33N 35°23' E 139°40'0 0.0
2015-Feb-05 07:33N 35°23' E 139°40'0 0.0
2015-Feb-05 06:33N 35°23' E 139°40'0 0.0
2015-Feb-05 05:33N 35°23' E 139°40'0 0.0
2015-Feb-05 04:33N 35°23' E 139°40'0 0.0
2015-Feb-05 03:33N 35°23' E 139°40'0 0.0
2015-Feb-05 02:33N 35°23' E 139°40'0 0.0
2015-Feb-05 01:33N 35°23' E 139°40'0 0.0
2015-Feb-05 00:33N 35°23' E 139°40'0 0.0
2015-Feb-04 23:33N 35°23' E 139°40'0 0.0
2015-Feb-04 22:33N 35°23' E 139°40'0 0.0
2015-Feb-04 21:33N 35°23' E 139°40'7 6.5
2015-Feb-04 20:33N 35°17' E 139°45'1010.5
2015-Feb-04 19:33N 35°07' E 139°45'1110.7
2015-Feb-04 18:29N 34°55' E 139°46'  
2015-Feb-01 22:27N 34°52' E 139°52'1111.7
2015-Feb-01 21:32N 34°52' E 139°39'23510.1
2015-Jan-31 22:21N 33°59' E 135°01'911.8
2015-Jan-31 21:33N 34°09' E 135°03'7 6.6
2015-Jan-31 20:33N 34°15' E 135°06'0 0.0
2015-Jan-31 19:33N 34°15' E 135°06'0 0.0
2015-Jan-31 18:33N 34°15' E 135°06'0 0.0
2015-Jan-31 17:33N 34°15' E 135°06'0 0.0
2015-Jan-31 16:34N 34°15' E 135°06'0 0.0
2015-Jan-31 15:33N 34°15' E 135°06'0 0.0
2015-Jan-31 14:33N 34°15' E 135°06'0 0.0
2015-Jan-31 13:33N 34°15' E 135°06'0 0.0
2015-Jan-31 12:33N 34°15' E 135°06'0 0.0
2015-Jan-31 11:32N 34°15' E 135°06'0 0.0
2015-Jan-31 10:33N 34°15' E 135°06'0 0.0
2015-Jan-31 09:33N 34°15' E 135°06'  

Dump ship's entire track history